sensor_id;sensor_type;location;lat;lon;timestamp;pressure;altitude;pressure_sealevel;temperature;humidity
21728;BME280;11026;50.560;17.852;2022-12-05T00:01:41;99963.88;;;2.08;100.00
21728;BME280;11026;50.560;17.852;2022-12-05T00:04:11;99970.81;;;2.09;100.00
21728;BME280;11026;50.560;17.852;2022-12-05T00:06:40;99956.03;;;2.14;100.00
21728;BME280;11026;50.560;17.852;2022-12-05T00:09:09;99950.81;;;2.14;100.00
21728;BME280;11026;50.560;17.852;2022-12-05T00:11:38;99943.84;;;2.16;100.00
21728;BME280;11026;50.560;17.852;2022-12-05T00:14:08;99942.97;;;2.17;100.00
21728;BME280;11026;50.560;17.852;2022-12-05T00:16:38;99948.19;;;2.16;100.00
21728;BME280;11026;50.560;17.852;2022-12-05T00:19:07;99947.34;;;2.18;100.00
21728;BME280;11026;50.560;17.852;2022-12-05T00:21:36;99944.75;;;2.14;100.00
21728;BME280;11026;50.560;17.852;2022-12-05T00:24:05;99944.75;;;2.11;100.00
21728;BME280;11026;50.560;17.852;2022-12-05T00:26:33;99941.22;;;2.21;100.00
21728;BME280;11026;50.560;17.852;2022-12-05T00:29:02;99947.28;;;2.21;100.00
21728;BME280;11026;50.560;17.852;2022-12-05T00:31:30;99944.69;;;2.23;100.00
21728;BME280;11026;50.560;17.852;2022-12-05T00:34:01;99934.28;;;2.18;100.00
21728;BME280;11026;50.560;17.852;2022-12-05T00:36:31;99937.75;;;2.20;100.00
21728;BME280;11026;50.560;17.852;2022-12-05T00:39:05;99938.63;;;2.19;100.00
21728;BME280;11026;50.560;17.852;2022-12-05T00:41:42;99934.28;;;2.15;100.00
21728;BME280;11026;50.560;17.852;2022-12-05T00:44:10;99938.63;;;2.19;100.00
21728;BME280;11026;50.560;17.852;2022-12-05T00:46:39;99946.44;;;2.24;100.00
21728;BME280;11026;50.560;17.852;2022-12-05T00:49:09;99959.47;;;2.29;100.00
21728;BME280;11026;50.560;17.852;2022-12-05T00:51:43;99957.78;;;2.18;100.00
21728;BME280;11026;50.560;17.852;2022-12-05T00:54:13;99949.94;;;2.18;100.00
21728;BME280;11026;50.560;17.852;2022-12-05T00:56:43;99945.53;;;2.31;100.00
21728;BME280;11026;50.560;17.852;2022-12-05T00:59:15;99953.34;;;2.33;100.00
21728;BME280;11026;50.560;17.852;2022-12-05T01:01:44;99955.09;;;2.32;100.00
21728;BME280;11026;50.560;17.852;2022-12-05T01:04:23;99952.53;;;2.21;100.00
21728;BME280;11026;50.560;17.852;2022-12-05T01:06:54;99950.78;;;2.25;100.00
21728;BME280;11026;50.560;17.852;2022-12-05T01:09:23;99952.50;;;2.25;100.00
21728;BME280;11026;50.560;17.852;2022-12-05T01:11:53;99950.81;;;2.22;100.00
21728;BME280;11026;50.560;17.852;2022-12-05T01:14:23;99966.44;;;2.20;100.00
21728;BME280;11026;50.560;17.852;2022-12-05T01:16:54;99973.44;;;2.15;100.00
21728;BME280;11026;50.560;17.852;2022-12-05T01:19:24;99975.16;;;2.13;100.00
21728;BME280;11026;50.560;17.852;2022-12-05T01:21:53;99971.72;;;2.14;100.00
21728;BME280;11026;50.560;17.852;2022-12-05T01:24:24;99967.38;;;2.10;100.00
21728;BME280;11026;50.560;17.852;2022-12-05T01:26:53;99953.41;;;2.17;100.00
21728;BME280;11026;50.560;17.852;2022-12-05T01:29:22;99956.94;;;2.10;100.00
21728;BME280;11026;50.560;17.852;2022-12-05T01:31:50;99955.16;;;2.09;100.00
21728;BME280;11026;50.560;17.852;2022-12-05T01:34:18;99955.19;;;2.06;100.00
21728;BME280;11026;50.560;17.852;2022-12-05T01:36:47;99945.63;;;2.08;100.00
21728;BME280;11026;50.560;17.852;2022-12-05T01:39:15;99954.31;;;2.07;100.00
21728;BME280;11026;50.560;17.852;2022-12-05T01:41:45;99953.47;;;1.99;100.00
21728;BME280;11026;50.560;17.852;2022-12-05T01:46:51;99935.19;;;2.07;100.00
21728;BME280;11026;50.560;17.852;2022-12-05T01:49:29;99943.00;;;2.11;100.00
21728;BME280;11026;50.560;17.852;2022-12-05T01:52:03;99942.97;;;2.13;100.00
21728;BME280;11026;50.560;17.852;2022-12-05T01:54:34;99940.41;;;2.05;100.00
21728;BME280;11026;50.560;17.852;2022-12-05T01:57:10;99940.38;;;2.11;100.00
21728;BME280;11026;50.560;17.852;2022-12-05T01:59:40;99944.72;;;2.09;100.00
21728;BME280;11026;50.560;17.852;2022-12-05T02:02:08;99939.50;;;2.09;100.00
21728;BME280;11026;50.560;17.852;2022-12-05T02:04:49;99949.97;;;2.11;100.00
21728;BME280;11026;50.560;17.852;2022-12-05T02:07:22;99940.38;;;2.11;100.00
21728;BME280;11026;50.560;17.852;2022-12-05T02:09:49;99951.69;;;2.06;100.00
21728;BME280;11026;50.560;17.852;2022-12-05T02:12:19;99947.34;;;2.02;100.00
21728;BME280;11026;50.560;17.852;2022-12-05T02:14:59;99946.50;;;2.07;100.00
21728;BME280;11026;50.560;17.852;2022-12-05T02:20:25;99948.19;;;2.17;100.00
21728;BME280;11026;50.560;17.852;2022-12-05T02:34:33;99950.75;;;2.31;100.00
21728;BME280;11026;50.560;17.852;2022-12-05T02:37:13;99952.50;;;2.25;100.00
21728;BME280;11026;50.560;17.852;2022-12-05T02:39:54;99942.94;;;2.28;100.00
21728;BME280;11026;50.560;17.852;2022-12-05T02:42:49;99929.00;;;2.29;100.00
21728;BME280;11026;50.560;17.852;2022-12-05T02:45:19;99923.81;;;2.21;100.00
21728;BME280;11026;50.560;17.852;2022-12-05T02:47:51;99935.13;;;2.30;100.00
21728;BME280;11026;50.560;17.852;2022-12-05T02:50:23;99931.63;;;2.31;100.00
21728;BME280;11026;50.560;17.852;2022-12-05T02:52:55;99921.19;;;2.28;100.00
21728;BME280;11026;50.560;17.852;2022-12-05T02:55:26;99927.25;;;2.31;100.00
21728;BME280;11026;50.560;17.852;2022-12-05T02:57:57;99920.28;;;2.36;100.00
21728;BME280;11026;50.560;17.852;2022-12-05T03:00:28;99931.59;;;2.35;100.00
21728;BME280;11026;50.560;17.852;2022-12-05T03:02:58;99915.94;;;2.34;100.00
21728;BME280;11026;50.560;17.852;2022-12-05T03:08:18;99921.13;;;2.37;100.00
21728;BME280;11026;50.560;17.852;2022-12-05T03:10:52;99917.63;;;2.41;100.00
21728;BME280;11026;50.560;17.852;2022-12-05T03:13:26;99919.44;;;2.34;100.00
21728;BME280;11026;50.560;17.852;2022-12-05T03:16:05;99918.56;;;2.25;100.00
21728;BME280;11026;50.560;17.852;2022-12-05T03:18:39;99928.13;;;2.35;100.00
21728;BME280;11026;50.560;17.852;2022-12-05T03:21:30;99922.03;;;2.31;100.00
21728;BME280;11026;50.560;17.852;2022-12-05T03:24:04;99927.25;;;2.36;100.00
21728;BME280;11026;50.560;17.852;2022-12-05T03:27:24;99916.78;;;2.36;100.00
21728;BME280;11026;50.560;17.852;2022-12-05T03:30:10;99912.47;;;2.26;100.00
21728;BME280;11026;50.560;17.852;2022-12-05T03:32:52;99917.69;;;2.26;100.00
21728;BME280;11026;50.560;17.852;2022-12-05T03:43:56;99906.38;;;2.31;100.00
21728;BME280;11026;50.560;17.852;2022-12-05T03:51:33;99915.97;;;2.25;100.00
21728;BME280;11026;50.560;17.852;2022-12-05T03:54:09;99915.97;;;2.26;100.00
21728;BME280;11026;50.560;17.852;2022-12-05T03:56:48;99913.34;;;2.31;100.00
21728;BME280;11026;50.560;17.852;2022-12-05T03:59:26;99902.00;;;2.33;100.00
21728;BME280;11026;50.560;17.852;2022-12-05T04:01:57;99885.50;;;2.30;100.00
21728;BME280;11026;50.560;17.852;2022-12-05T04:04:34;99889.88;;;2.26;100.00
21728;BME280;11026;50.560;17.852;2022-12-05T04:07:06;99903.75;;;2.33;100.00
21728;BME280;11026;50.560;17.852;2022-12-05T04:10:02;99904.66;;;2.24;100.00
21728;BME280;11026;50.560;17.852;2022-12-05T04:12:34;99885.53;;;2.24;100.00
21728;BME280;11026;50.560;17.852;2022-12-05T04:15:06;99875.94;;;2.30;100.00
21728;BME280;11026;50.560;17.852;2022-12-05T04:17:44;99874.22;;;2.21;100.00
21728;BME280;11026;50.560;17.852;2022-12-05T04:20:36;99880.38;;;2.08;100.00
21728;BME280;11026;50.560;17.852;2022-12-05T04:23:25;99887.31;;;2.15;100.00
21728;BME280;11026;50.560;17.852;2022-12-05T04:26:03;99893.38;;;2.20;100.00
21728;BME280;11026;50.560;17.852;2022-12-05T04:41:53;99882.97;;;2.14;100.00
21728;BME280;11026;50.560;17.852;2022-12-05T04:44:26;99877.75;;;2.05;100.00
21728;BME280;11026;50.560;17.852;2022-12-05T04:46:58;99872.47;;;2.24;100.00
21728;BME280;11026;50.560;17.852;2022-12-05T04:49:28;99873.31;;;2.26;100.00
21728;BME280;11026;50.560;17.852;2022-12-05T04:51:59;99869.00;;;2.21;100.00
21728;BME280;11026;50.560;17.852;2022-12-05T04:59:46;99884.66;;;2.21;100.00
21728;BME280;11026;50.560;17.852;2022-12-05T05:02:17;99870.72;;;2.27;100.00
21728;BME280;11026;50.560;17.852;2022-12-05T05:04:51;99870.75;;;2.22;100.00
21728;BME280;11026;50.560;17.852;2022-12-05T05:07:21;99877.69;;;2.30;100.00
21728;BME280;11026;50.560;17.852;2022-12-05T05:09:51;99875.97;;;2.22;100.00
21728;BME280;11026;50.560;17.852;2022-12-05T05:12:18;99878.53;;;2.30;100.00
21728;BME280;11026;50.560;17.852;2022-12-05T05:14:46;99873.34;;;2.21;100.00
21728;BME280;11026;50.560;17.852;2022-12-05T05:17:15;99866.41;;;2.20;100.00
21728;BME280;11026;50.560;17.852;2022-12-05T05:19:42;99880.31;;;2.17;100.00
21728;BME280;11026;50.560;17.852;2022-12-05T05:22:10;99870.69;;;2.38;100.00
21728;BME280;11026;50.560;17.852;2022-12-05T05:24:49;99872.41;;;2.39;100.00
21728;BME280;11026;50.560;17.852;2022-12-05T05:27:16;99872.41;;;2.36;100.00
21728;BME280;11026;50.560;17.852;2022-12-05T05:29:44;99895.03;;;2.35;100.00
21728;BME280;11026;50.560;17.852;2022-12-05T05:32:11;99877.69;;;2.30;100.00
21728;BME280;11026;50.560;17.852;2022-12-05T05:34:39;99895.94;;;2.30;100.00
21728;BME280;11026;50.560;17.852;2022-12-05T05:37:06;99893.34;;;2.30;100.00
21728;BME280;11026;50.560;17.852;2022-12-05T05:39:39;99889.84;;;2.28;100.00
21728;BME280;11026;50.560;17.852;2022-12-05T05:42:09;99898.56;;;2.27;100.00
21728;BME280;11026;50.560;17.852;2022-12-05T05:44:36;99880.28;;;2.25;100.00
21728;BME280;11026;50.560;17.852;2022-12-05T05:47:03;99882.00;;;2.32;100.00
21728;BME280;11026;50.560;17.852;2022-12-05T05:49:31;99886.34;;;2.32;100.00
21728;BME280;11026;50.560;17.852;2022-12-05T05:51:58;99889.88;;;2.21;100.00
21728;BME280;11026;50.560;17.852;2022-12-05T05:54:25;99895.09;;;2.25;100.00
21728;BME280;11026;50.560;17.852;2022-12-05T05:56:58;99884.66;;;2.25;100.00
21728;BME280;11026;50.560;17.852;2022-12-05T05:59:25;99898.56;;;2.24;100.00
21728;BME280;11026;50.560;17.852;2022-12-05T06:01:53;99902.03;;;2.29;100.00
21728;BME280;11026;50.560;17.852;2022-12-05T06:04:20;99906.41;;;2.24;100.00
21728;BME280;11026;50.560;17.852;2022-12-05T06:06:48;99895.94;;;2.30;100.00
21728;BME280;11026;50.560;17.852;2022-12-05T06:09:21;99896.84;;;2.22;100.00
21728;BME280;11026;50.560;17.852;2022-12-05T06:11:49;99888.94;;;2.33;100.00
21728;BME280;11026;50.560;17.852;2022-12-05T06:14:17;99888.16;;;2.19;100.00
21728;BME280;11026;50.560;17.852;2022-12-05T06:16:44;99905.53;;;2.28;100.00
21728;BME280;11026;50.560;17.852;2022-12-05T06:19:12;99901.13;;;2.33;100.00
21728;BME280;11026;50.560;17.852;2022-12-05T06:21:39;99907.25;;;2.32;100.00
21728;BME280;11026;50.560;17.852;2022-12-05T06:24:08;99900.25;;;2.37;100.00
21728;BME280;11026;50.560;17.852;2022-12-05T06:26:35;99901.97;;;2.41;100.00
21728;BME280;11026;50.560;17.852;2022-12-05T06:29:03;99910.66;;;2.44;100.00
21728;BME280;11026;50.560;17.852;2022-12-05T06:31:36;99907.19;;;2.42;100.00
21728;BME280;11026;50.560;17.852;2022-12-05T06:34:03;99902.03;;;2.32;100.00
21728;BME280;11026;50.560;17.852;2022-12-05T06:36:32;99909.81;;;2.42;100.00
21728;BME280;11026;50.560;17.852;2022-12-05T06:38:59;99903.69;;;2.48;100.00
21728;BME280;11026;50.560;17.852;2022-12-05T06:41:27;99899.38;;;2.42;100.00
21728;BME280;11026;50.560;17.852;2022-12-05T06:43:55;99888.97;;;2.35;100.00
21728;BME280;11026;50.560;17.852;2022-12-05T06:46:28;99915.94;;;2.34;100.00
21728;BME280;11026;50.560;17.852;2022-12-05T06:48:57;99901.19;;;2.24;100.00
21728;BME280;11026;50.560;17.852;2022-12-05T06:51:25;99907.25;;;2.29;100.00
21728;BME280;11026;50.560;17.852;2022-12-05T06:53:55;99901.22;;;2.19;100.00
21728;BME280;11026;50.560;17.852;2022-12-05T06:56:23;99902.09;;;2.18;100.00
21728;BME280;11026;50.560;17.852;2022-12-05T06:58:50;99893.38;;;2.22;100.00
21728;BME280;11026;50.560;17.852;2022-12-05T07:01:21;99896.81;;;2.26;100.00
21728;BME280;11026;50.560;17.852;2022-12-05T07:04:19;99900.31;;;2.25;100.00
21728;BME280;11026;50.560;17.852;2022-12-05T07:06:48;99910.75;;;2.21;100.00
21728;BME280;11026;50.560;17.852;2022-12-05T07:09:24;99902.09;;;2.13;100.00
21728;BME280;11026;50.560;17.852;2022-12-05T07:12:11;99896.00;;;2.13;100.00
21728;BME280;11026;50.560;17.852;2022-12-05T07:14:41;99908.19;;;2.18;100.00
21728;BME280;11026;50.560;17.852;2022-12-05T07:17:17;99904.75;;;2.07;100.00
21728;BME280;11026;50.560;17.852;2022-12-05T07:19:49;99910.78;;;2.18;100.00
21728;BME280;11026;50.560;17.852;2022-12-05T07:22:20;99897.75;;;2.18;100.00
21728;BME280;11026;50.560;17.852;2022-12-05T07:24:50;99906.47;;;2.14;100.00
21728;BME280;11026;50.560;17.852;2022-12-05T07:27:24;99900.34;;;2.18;100.00
21728;BME280;11026;50.560;17.852;2022-12-05T07:29:55;99902.03;;;2.27;100.00
21728;BME280;11026;50.560;17.852;2022-12-05T07:32:23;99888.13;;;2.27;100.00
21728;BME280;11026;50.560;17.852;2022-12-05T07:34:52;99888.97;;;2.26;100.00
21728;BME280;11026;50.560;17.852;2022-12-05T07:37:21;99885.50;;;2.30;100.00
21728;BME280;11026;50.560;17.852;2022-12-05T07:39:53;99901.19;;;2.24;100.00
21728;BME280;11026;50.560;17.852;2022-12-05T07:42:21;99902.97;;;2.12;100.00
21728;BME280;11026;50.560;17.852;2022-12-05T07:44:48;99909.97;;;2.10;100.00
21728;BME280;11026;50.560;17.852;2022-12-05T07:47:17;99908.19;;;2.15;100.00
21728;BME280;11026;50.560;17.852;2022-12-05T07:49:50;99909.00;;;2.30;100.00
21728;BME280;11026;50.560;17.852;2022-12-05T07:52:18;99902.94;;;2.23;100.00
21728;BME280;11026;50.560;17.852;2022-12-05T07:54:44;99910.78;;;2.15;100.00
21728;BME280;11026;50.560;17.852;2022-12-05T07:57:12;99909.00;;;2.28;100.00
21728;BME280;11026;50.560;17.852;2022-12-05T07:59:39;99911.63;;;2.25;100.00
21728;BME280;11026;50.560;17.852;2022-12-05T08:02:07;99914.19;;;2.36;100.00
21728;BME280;11026;50.560;17.852;2022-12-05T08:04:35;99909.81;;;2.36;100.00
21728;BME280;11026;50.560;17.852;2022-12-05T08:07:02;99915.94;;;2.35;100.00
21728;BME280;11026;50.560;17.852;2022-12-05T08:09:29;99915.91;;;2.37;100.00
21728;BME280;11026;50.560;17.852;2022-12-05T08:11:56;99908.91;;;2.48;100.00
21728;BME280;11026;50.560;17.852;2022-12-05T08:14:26;99910.59;;;2.55;100.00
21728;BME280;11026;50.560;17.852;2022-12-05T08:16:59;99907.97;;;2.57;100.00
21728;BME280;11026;50.560;17.852;2022-12-05T08:19:27;99912.34;;;2.53;100.00
21728;BME280;11026;50.560;17.852;2022-12-05T08:21:54;99917.59;;;2.50;100.00
21728;BME280;11026;50.560;17.852;2022-12-05T08:24:27;99917.59;;;2.50;100.00
21728;BME280;11026;50.560;17.852;2022-12-05T08:26:55;99927.19;;;2.48;100.00
21728;BME280;11026;50.560;17.852;2022-12-05T08:29:22;99922.84;;;2.47;100.00
21728;BME280;11026;50.560;17.852;2022-12-05T08:31:50;99928.06;;;2.41;100.00
21728;BME280;11026;50.560;17.852;2022-12-05T08:34:19;99923.75;;;2.38;100.00
21728;BME280;11026;50.560;17.852;2022-12-05T08:36:48;99928.09;;;2.42;100.00
21728;BME280;11026;50.560;17.852;2022-12-05T08:39:17;99922.84;;;2.41;100.00
21728;BME280;11026;50.560;17.852;2022-12-05T08:41:46;99923.78;;;2.32;100.00
21728;BME280;11026;50.560;17.852;2022-12-05T08:44:16;99914.16;;;2.42;100.00
21728;BME280;11026;50.560;17.852;2022-12-05T08:46:46;99912.41;;;2.47;100.00
21728;BME280;11026;50.560;17.852;2022-12-05T08:49:15;99908.00;;;2.49;100.00
21728;BME280;11026;50.560;17.852;2022-12-05T08:51:43;99916.75;;;2.46;100.00
21728;BME280;11026;50.560;17.852;2022-12-05T08:54:12;99911.50;;;2.48;100.00
21728;BME280;11026;50.560;17.852;2022-12-05T08:56:40;99925.41;;;2.56;100.00
21728;BME280;11026;50.560;17.852;2022-12-05T08:59:08;99913.25;;;2.54;100.00
21728;BME280;11026;50.560;17.852;2022-12-05T09:01:35;99910.59;;;2.55;100.00
21728;BME280;11026;50.560;17.852;2022-12-05T09:04:05;99920.19;;;2.52;100.00
21728;BME280;11026;50.560;17.852;2022-12-05T09:06:33;99913.25;;;2.47;100.00
21728;BME280;11026;50.560;17.852;2022-12-05T09:09:05;99915.81;;;2.58;100.00
21728;BME280;11026;50.560;17.852;2022-12-05T09:11:35;99914.06;;;2.60;100.00
21728;BME280;11026;50.560;17.852;2022-12-05T09:14:04;99914.91;;;2.67;100.00
21728;BME280;11026;50.560;17.852;2022-12-05T09:16:33;99915.75;;;2.67;100.00
21728;BME280;11026;50.560;17.852;2022-12-05T09:19:08;99920.09;;;2.71;100.00
21728;BME280;11026;50.560;17.852;2022-12-05T09:21:36;99920.97;;;2.74;100.00
21728;BME280;11026;50.560;17.852;2022-12-05T09:24:04;99908.75;;;2.74;100.00
21728;BME280;11026;50.560;17.852;2022-12-05T09:26:31;99905.22;;;2.86;100.00
21728;BME280;11026;50.560;17.852;2022-12-05T09:28:58;99914.78;;;2.84;100.00
21728;BME280;11026;50.560;17.852;2022-12-05T09:31:27;99911.31;;;2.77;100.00
21728;BME280;11026;50.560;17.852;2022-12-05T09:33:56;99902.59;;;2.84;100.00
21728;BME280;11026;50.560;17.852;2022-12-05T09:36:27;99906.94;;;2.87;100.00
21728;BME280;11026;50.560;17.852;2022-12-05T09:38:59;99904.22;;;2.99;100.00
21728;BME280;11026;50.560;17.852;2022-12-05T09:50:31;99903.13;;;3.25;100.00
21728;BME280;11026;50.560;17.852;2022-12-05T09:53:15;99895.31;;;3.23;100.00
21728;BME280;11026;50.560;17.852;2022-12-05T09:55:52;99899.66;;;3.24;100.00
21728;BME280;11026;50.560;17.852;2022-12-05T10:06:42;99882.09;;;3.40;100.00
21728;BME280;11026;50.560;17.852;2022-12-05T10:09:30;99898.59;;;3.47;100.00
21728;BME280;11026;50.560;17.852;2022-12-05T10:23:55;99880.16;;;3.62;100.00
21728;BME280;11026;50.560;17.852;2022-12-05T10:26:50;99877.50;;;3.65;100.00
21728;BME280;11026;50.560;17.852;2022-12-05T10:29:43;99872.06;;;3.83;100.00
21728;BME280;11026;50.560;17.852;2022-12-05T10:32:35;99876.38;;;3.87;100.00
21728;BME280;11026;50.560;17.852;2022-12-05T10:35:15;99875.22;;;4.11;100.00
21728;BME280;11026;50.560;17.852;2022-12-05T10:37:54;99874.09;;;4.31;100.00
21728;BME280;11026;50.560;17.852;2022-12-05T10:40:25;99878.25;;;4.47;99.28
21728;BME280;11026;50.560;17.852;2022-12-05T10:42:53;99872.94;;;5.10;97.83
21728;BME280;11026;50.560;17.852;2022-12-05T10:45:22;99861.38;;;5.72;95.54
21728;BME280;11026;50.560;17.852;2022-12-05T10:47:55;99865.00;;;5.64;91.25
21728;BME280;11026;50.560;17.852;2022-12-05T10:50:31;99869.78;;;5.89;90.31
21728;BME280;11026;50.560;17.852;2022-12-05T10:53:03;99856.03;;;5.76;89.39
21728;BME280;11026;50.560;17.852;2022-12-05T10:55:36;99857.53;;;5.88;88.93
21728;BME280;11026;50.560;17.852;2022-12-05T10:58:18;99851.53;;;5.81;88.47
21728;BME280;11026;50.560;17.852;2022-12-05T11:00:54;99850.91;;;5.68;88.35
21728;BME280;11026;50.560;17.852;2022-12-05T11:03:30;99841.78;;;5.43;89.64
21728;BME280;11026;50.560;17.852;2022-12-05T11:06:01;99850.53;;;5.88;90.01
21728;BME280;11026;50.560;17.852;2022-12-05T11:08:35;99855.94;;;6.64;87.76
21728;BME280;11026;50.560;17.852;2022-12-05T11:11:26;99834.94;;;7.00;84.65
21728;BME280;11026;50.560;17.852;2022-12-05T11:14:04;99840.44;;;6.52;83.21
21728;BME280;11026;50.560;17.852;2022-12-05T11:16:36;99844.00;;;6.51;84.23
21728;BME280;11026;50.560;17.852;2022-12-05T11:19:29;99844.63;;;6.62;85.16
21728;BME280;11026;50.560;17.852;2022-12-05T11:21:57;99850.50;;;6.72;83.95
21728;BME280;11026;50.560;17.852;2022-12-05T11:24:29;99855.88;;;6.68;84.21
21728;BME280;11026;50.560;17.852;2022-12-05T11:27:29;99849.03;;;6.20;84.77
21728;BME280;11026;50.560;17.852;2022-12-05T11:30:17;99845.06;;;6.02;86.09
21728;BME280;11026;50.560;17.852;2022-12-05T11:32:45;99848.63;;;5.98;87.51
21728;BME280;11026;50.560;17.852;2022-12-05T12:00:18;99830.31;;;6.35;88.85
21728;BME280;11026;50.560;17.852;2022-12-05T12:08:24;99831.19;;;6.75;88.07
21728;BME280;11026;50.560;17.852;2022-12-05T12:11:30;99835.69;;;6.70;86.33
21728;BME280;11026;50.560;17.852;2022-12-05T12:14:12;99839.81;;;6.80;86.60
21728;BME280;11026;50.560;17.852;2022-12-05T12:31:44;99827.69;;;6.35;89.12
21728;BME280;11026;50.560;17.852;2022-12-05T12:42:45;99819.34;;;6.18;90.75
21728;BME280;11026;50.560;17.852;2022-12-05T12:48:18;99817.50;;;6.22;91.37
21728;BME280;11026;50.560;17.852;2022-12-05T12:50:50;99819.88;;;6.32;91.07
21728;BME280;11026;50.560;17.852;2022-12-05T12:53:34;99817.34;;;6.28;90.34
21728;BME280;11026;50.560;17.852;2022-12-05T13:04:55;99814.59;;;6.34;90.37
21728;BME280;11026;50.560;17.852;2022-12-05T13:07:38;99815.19;;;6.06;91.11
21728;BME280;11026;50.560;17.852;2022-12-05T13:10:26;99816.88;;;6.10;91.98
21728;BME280;11026;50.560;17.852;2022-12-05T13:12:56;99812.50;;;6.09;92.13
21728;BME280;11026;50.560;17.852;2022-12-05T13:15:44;99815.09;;;6.11;92.48
21728;BME280;11026;50.560;17.852;2022-12-05T13:18:18;99823.84;;;6.11;92.50
21728;BME280;11026;50.560;17.852;2022-12-05T13:20:49;99813.44;;;6.05;92.84
21728;BME280;11026;50.560;17.852;2022-12-05T13:23:24;99827.38;;;6.10;92.82
21728;BME280;11026;50.560;17.852;2022-12-05T13:25:55;99823.09;;;6.05;93.34
21728;BME280;11026;50.560;17.852;2022-12-05T13:28:27;99817.81;;;6.06;93.55
21728;BME280;11026;50.560;17.852;2022-12-05T13:30:57;99823.91;;;6.08;93.83
21728;BME280;11026;50.560;17.852;2022-12-05T13:33:48;99824.91;;;6.01;93.99
21728;BME280;11026;50.560;17.852;2022-12-05T13:36:21;99820.28;;;6.14;94.10
21728;BME280;11026;50.560;17.852;2022-12-05T13:39:27;99827.16;;;6.20;93.16
21728;BME280;11026;50.560;17.852;2022-12-05T13:42:22;99825.50;;;6.15;93.64
21728;BME280;11026;50.560;17.852;2022-12-05T13:45:17;99836.81;;;6.18;93.46
21728;BME280;11026;50.560;17.852;2022-12-05T13:50:40;99834.09;;;6.24;93.63
21728;BME280;11026;50.560;17.852;2022-12-05T13:53:31;99838.69;;;6.12;93.94
21728;BME280;11026;50.560;17.852;2022-12-05T13:56:06;99840.72;;;6.00;94.53
21728;BME280;11026;50.560;17.852;2022-12-05T13:58:58;99840.78;;;5.97;95.42
21728;BME280;11026;50.560;17.852;2022-12-05T14:04:01;99847.84;;;5.95;96.20
21728;BME280;11026;50.560;17.852;2022-12-05T14:15:00;99847.84;;;5.91;96.53
21728;BME280;11026;50.560;17.852;2022-12-05T14:17:41;99850.31;;;6.02;95.49
21728;BME280;11026;50.560;17.852;2022-12-05T14:20:25;99848.50;;;6.04;95.68
21728;BME280;11026;50.560;17.852;2022-12-05T14:32:16;99859.16;;;5.97;95.79
21728;BME280;11026;50.560;17.852;2022-12-05T14:35:03;99843.31;;;6.01;95.82
21728;BME280;11026;50.560;17.852;2022-12-05T14:37:40;99847.69;;;6.01;95.97
21728;BME280;11026;50.560;17.852;2022-12-05T14:40:35;99849.03;;;6.22;94.63
21728;BME280;11026;50.560;17.852;2022-12-05T14:43:07;99844.00;;;6.11;94.35
21728;BME280;11026;50.560;17.852;2022-12-05T14:45:55;99851.72;;;6.19;94.45
21728;BME280;11026;50.560;17.852;2022-12-05T14:48:28;99846.72;;;6.05;94.75
21728;BME280;11026;50.560;17.852;2022-12-05T14:50:58;99843.56;;;5.87;95.24
21728;BME280;11026;50.560;17.852;2022-12-05T14:53:31;99849.88;;;5.77;96.00
21728;BME280;11026;50.560;17.852;2022-12-05T14:58:49;99847.00;;;5.89;97.34
21728;BME280;11026;50.560;17.852;2022-12-05T15:01:21;99843.56;;;5.86;96.44
21728;BME280;11026;50.560;17.852;2022-12-05T15:06:53;99832.41;;;6.20;93.95
21728;BME280;11026;50.560;17.852;2022-12-05T15:12:22;99833.28;;;6.20;93.66
21728;BME280;11026;50.560;17.852;2022-12-05T15:15:09;99827.22;;;6.16;93.63
21728;BME280;11026;50.560;17.852;2022-12-05T15:17:49;99827.63;;;5.98;94.24
21728;BME280;11026;50.560;17.852;2022-12-05T15:20:29;99831.94;;;6.01;94.80
21728;BME280;11026;50.560;17.852;2022-12-05T15:26:36;99831.63;;;5.70;95.92
21728;BME280;11026;50.560;17.852;2022-12-05T15:31:52;99833.34;;;5.72;96.59
21728;BME280;11026;50.560;17.852;2022-12-05T15:34:39;99836.69;;;5.80;96.63
21728;BME280;11026;50.560;17.852;2022-12-05T15:39:55;99835.31;;;5.62;97.67
21728;BME280;11026;50.560;17.852;2022-12-05T15:42:25;99830.78;;;5.69;98.38
21728;BME280;11026;50.560;17.852;2022-12-05T15:45:16;99834.28;;;5.70;98.33
21728;BME280;11026;50.560;17.852;2022-12-05T15:47:46;99839.66;;;5.63;98.63
21728;BME280;11026;50.560;17.852;2022-12-05T15:50:23;99833.56;;;5.61;98.67
21728;BME280;11026;50.560;17.852;2022-12-05T15:52:57;99837.13;;;5.57;98.82
21728;BME280;11026;50.560;17.852;2022-12-05T15:58:24;99842.38;;;5.57;98.73
21728;BME280;11026;50.560;17.852;2022-12-05T16:01:07;99838.13;;;5.50;98.94
21728;BME280;11026;50.560;17.852;2022-12-05T16:08:52;99826.59;;;5.60;98.84
21728;BME280;11026;50.560;17.852;2022-12-05T16:11:20;99829.06;;;5.68;98.73
21728;BME280;11026;50.560;17.852;2022-12-05T16:14:07;99834.50;;;5.59;98.88
21728;BME280;11026;50.560;17.852;2022-12-05T16:16:36;99833.72;;;5.52;99.13
21728;BME280;11026;50.560;17.852;2022-12-05T16:19:21;99841.66;;;5.49;99.26
21728;BME280;11026;50.560;17.852;2022-12-05T16:24:47;99847.25;;;5.29;100.00
21728;BME280;11026;50.560;17.852;2022-12-05T16:27:25;99846.41;;;5.29;100.00
21728;BME280;11026;50.560;17.852;2022-12-05T16:30:16;99850.66;;;5.36;100.00
21728;BME280;11026;50.560;17.852;2022-12-05T16:32:45;99853.31;;;5.33;100.00
21728;BME280;11026;50.560;17.852;2022-12-05T16:35:30;99854.22;;;5.30;100.00
21728;BME280;11026;50.560;17.852;2022-12-05T16:38:22;99856.84;;;5.30;100.00
21728;BME280;11026;50.560;17.852;2022-12-05T16:40:58;99864.75;;;5.29;100.00
21728;BME280;11026;50.560;17.852;2022-12-05T16:48:40;99862.13;;;5.29;100.00
21728;BME280;11026;50.560;17.852;2022-12-05T16:51:21;99858.69;;;5.27;100.00